Date,TemperatureHighF,TemperatureAvgF,TemperatureLowF,DewpointHighF,DewpointAvgF,DewpointLowF,HumidityHigh,HumidityAvg,HumidityLow,PressureMaxIn,PressureMinIn,WindSpeedMaxMPH,WindSpeedAvgMPH,GustSpeedMaxMPH,PrecipitationSumIn
2013-5-1,80,73,67,71,68,65,96,85,69,29.99,29.91,10,4,48,0.00
2013-5-2,75,72,68,70,68,65,95,87,79,29.93,29.79,12,8,38,0.00
2013-5-3,84,74,68,69,67,64,89,77,53,29.82,29.65,15,7,32,0.00
2013-5-4,83,74,64,69,66,63,95,78,53,29.77,29.67,11,5,50,0.00
2013-5-5,79,71,62,65,58,45,93,66,32,29.91,29.73,14,8,50,0.00
2013-5-6,80,70,58,62,56,50,85,63,45,29.98,29.89,11,7,27,0.00
2013-5-7,80,69,57,58,54,52,87,62,43,30.02,29.94,12,8,24,0.00
2013-5-8,82,71,59,63,58,49,89,66,32,30.09,29.99,8,4,107,0.00
2013-5-9,80,73,64,72,65,59,88,75,61,30.11,30.03,9,5,21,0.00
2013-5-10,83,77,73,72,68,-100,87,76,65,30.10,29.98,12,7,34,0.00
2013-5-11,87,77,69,74,71,66,95,82,52,30.05,29.92,16,6,28,0.00
2013-5-12,86,76,70,73,69,-100,95,79,55,30.01,29.92,11,6,29,0.00
2013-5-13,81,74,69,70,66,61,94,75,60,30.07,29.96,10,6,28,0.00
2013-5-14,77,74,72,62,56,54,65,54,48,30.16,30.06,10,8,21,0.00
2013-5-15,79,74,71,61,58,54,63,55,50,30.18,30.09,8,5,15,0.00
2013-5-16,78,67,63,64,38,-100,92,65,54,30.10,30.02,9,6,16,0.00
2013-5-17,82,75,69,69,59,-100,88,70,63,30.06,29.99,10,6,21,0.00
2013-5-18,82,77,70,72,70,68,94,77,68,30.08,30.02,10,6,19,0.00
2013-5-19,82,77,70,71,69,67,91,75,60,30.08,29.98,10,6,38,0.00
2013-5-20,78,74,69,72,69,66,92,84,73,30.06,29.96,12,4,28,0.00
2013-5-21,81,75,67,71,69,66,94,82,70,30.01,29.93,10,7,21,0.00
2013-5-22,82,76,70,72,70,66,94,82,67,29.94,29.88,14,5,26,0.00
2013-5-23,86,77,70,72,70,69,95,80,56,29.98,29.88,20,5,32,0.00
2013-5-24,84,78,70,73,70,67,94,76,58,30.05,29.93,13,5,32,0.00
2013-5-25,83,78,75,72,66,61,86,66,53,30.16,30.03,12,8,35,0.00
2013-5-26,80,76,72,66,63,57,69,62,57,30.18,30.10,10,7,20,0.00
2013-5-27,81,77,74,70,66,60,76,67,61,30.15,30.07,11,8,23,0.00
2013-5-28,81,77,72,72,70,69,90,78,71,30.11,30.04,11,10,26,0.00
2013-5-29,81,77,71,72,71,67,93,81,71,30.10,30.02,12,9,37,0.00
2013-5-30,81,77,72,73,70,68,93,78,68,30.09,30.01,14,10,30,0.00
2013-5-31,81,78,76,72,70,67,79,74,69,30.08,30.02,13,10,26,0.00